Time;durP1;ratioP1;P1;durP2;ratioP2;P2;SDS_P1;SDS_P2;PMS_P1;PMS_P2;Temp;Humidity;BMP_temperature;BMP_pressure;BME280_temperature;BME280_humidity;BME280_pressure;Samples;Min_cycle;Max_cycle;Signal;HPM_P1;HPM_P2
2021/01/02 00:00:18;;;;;;;52.25;28.95;;;5.10;99.90;;;;;;5042154;28;20506;-79
2021/01/02 00:02:44;;;;;;;56.50;29.73;;;5.10;99.90;;;;;;5048498;28;20025;-75
2021/01/02 00:05:14;;;;;;;51.40;28.80;;;5.00;99.90;;;;;;5044388;28;20032;-73
2021/01/02 00:08:06;;;;;;;43.35;26.02;;;5.10;99.90;;;;;;5044277;28;20025;-73
2021/01/02 00:10:49;;;;;;;52.90;29.23;;;5.10;99.90;;;;;;5046558;28;20028;-73
2021/01/02 00:13:23;;;;;;;45.92;28.55;;;5.00;99.90;;;;;;5045062;28;20043;-73
2021/01/02 00:16:15;;;;;;;51.83;29.25;;;5.00;99.90;;;;;;5052256;28;20025;-73
2021/01/02 00:19:16;;;;;;;49.45;27.58;;;5.00;99.90;;;;;;5042958;28;20032;-73
2021/01/02 00:21:53;;;;;;;54.83;29.08;;;5.00;99.90;;;;;;5045501;28;20099;-73
2021/01/02 00:24:51;;;;;;;49.50;27.08;;;5.00;99.90;;;;;;5042061;28;20095;-76
2021/01/02 00:27:45;;;;;;;48.33;27.88;;;5.10;99.90;;;;;;5047751;28;20107;-72
2021/01/02 00:30:46;;;;;;;45.55;24.98;;;5.00;99.90;;;;;;5010392;28;20039;-72
2021/01/02 00:33:19;;;;;;;48.33;27.08;;;5.00;99.90;;;;;;5028348;28;20494;-73
2021/01/02 00:35:48;;;;;;;49.92;26.73;;;5.00;99.90;;;;;;5043320;28;20029;-73
2021/01/02 00:38:16;;;;;;;47.92;27.95;;;5.00;99.90;;;;;;5047109;28;20029;-73
2021/01/02 00:40:42;;;;;;;48.40;26.85;;;5.00;99.90;;;;;;5046015;28;20044;-72
2021/01/02 00:43:08;;;;;;;48.35;26.92;;;4.90;99.90;;;;;;5043616;28;20025;-73
2021/01/02 00:45:35;;;;;;;49.05;28.83;;;4.90;99.90;;;;;;5042451;28;20022;-72
2021/01/02 00:48:02;;;;;;;50.25;30.05;;;4.90;99.90;;;;;;5044805;28;20376;-77
2021/01/02 00:50:28;;;;;;;53.85;30.20;;;4.90;99.90;;;;;;5049508;28;20107;-73
2021/01/02 00:53:36;;;;;;;52.08;30.08;;;4.90;99.90;;;;;;5049026;28;20039;-73
2021/01/02 00:56:21;;;;;;;47.63;29.15;;;4.90;99.90;;;;;;5047080;28;20116;-78
2021/01/02 00:59:11;;;;;;;52.22;27.25;;;5.00;99.90;;;;;;5051722;28;20099;-72
2021/01/02 01:02:08;;;;;;;50.88;27.92;;;5.00;99.90;;;;;;5040197;28;20057;-73
2021/01/02 01:05:19;;;;;;;49.22;27.15;;;5.00;99.90;;;;;;5027087;28;20037;-73
2021/01/02 01:07:52;;;;;;;47.75;27.33;;;5.00;99.90;;;;;;5008594;28;20036;-73
2021/01/02 01:10:21;;;;;;;53.65;28.95;;;5.10;99.90;;;;;;5048169;28;20033;-72
2021/01/02 01:12:54;;;;;;;51.05;28.30;;;5.10;99.90;;;;;;5049703;28;20091;-72
2021/01/02 01:15:19;;;;;;;48.75;28.00;;;5.10;99.90;;;;;;5052542;28;20036;-72
2021/01/02 01:18:04;;;;;;;53.65;28.85;;;5.10;99.90;;;;;;5049505;28;20021;-72
2021/01/02 01:20:31;;;;;;;54.28;29.40;;;5.10;99.90;;;;;;5051558;28;20354;-72
2021/01/02 01:23:21;;;;;;;62.08;33.83;;;5.10;99.90;;;;;;5051487;28;20025;-73
2021/01/02 01:26:20;;;;;;;51.58;30.52;;;5.10;99.90;;;;;;5045979;28;20102;-72
2021/01/02 01:28:49;;;;;;;49.78;27.05;;;5.10;99.90;;;;;;5050606;28;20025;-72
2021/01/02 01:31:18;;;;;;;54.17;29.23;;;5.10;99.90;;;;;;5047489;28;20100;-73
2021/01/02 01:33:49;;;;;;;49.25;28.63;;;5.10;99.90;;;;;;5047198;28;20033;-73
2021/01/02 01:36:17;;;;;;;51.90;28.17;;;5.10;99.90;;;;;;5057317;28;20024;-73
2021/01/02 01:38:44;;;;;;;53.20;29.48;;;5.00;99.90;;;;;;5058784;28;20071;-73
2021/01/02 01:41:14;;;;;;;58.33;30.70;;;5.00;99.90;;;;;;5052137;28;20037;-72
2021/01/02 01:44:10;;;;;;;51.88;28.45;;;5.00;99.90;;;;;;5053624;28;20028;-72
2021/01/02 01:46:51;;;;;;;56.15;29.60;;;5.10;99.90;;;;;;5040971;28;20067;-74
2021/01/02 01:49:43;;;;;;;52.47;29.98;;;5.10;99.90;;;;;;5048251;28;20100;-73
2021/01/02 01:52:40;;;;;;;55.33;31.83;;;5.10;99.90;;;;;;5021914;28;20130;-72
2021/01/02 01:55:06;;;;;;;57.08;30.85;;;5.10;99.90;;;;;;5051992;28;20493;-73
2021/01/02 01:57:42;;;;;;;56.40;31.17;;;5.10;99.90;;;;;;5049928;28;20063;-73
2021/01/02 02:00:16;;;;;;;55.90;32.15;;;5.10;99.90;;;;;;5053552;28;20029;-72
2021/01/02 02:02:47;;;;;;;59.50;32.92;;;5.00;99.90;;;;;;5049357;28;20028;-73
2021/01/02 02:05:24;;;;;;;66.80;33.80;;;5.00;99.90;;;;;;5048253;28;20114;-73
2021/01/02 02:08:03;;;;;;;64.00;33.22;;;5.00;99.90;;;;;;5055913;28;20104;-74
2021/01/02 02:10:32;;;;;;;62.20;33.70;;;5.00;99.90;;;;;;5057532;28;20472;-75
2021/01/02 02:13:00;;;;;;;65.65;36.10;;;4.90;99.90;;;;;;5063077;28;20098;-74
2021/01/02 02:15:28;;;;;;;64.15;35.90;;;5.00;99.90;;;;;;5056985;28;20037;-72
2021/01/02 02:18:07;;;;;;;69.78;37.30;;;5.00;99.90;;;;;;5057226;28;20021;-74
2021/01/02 02:20:34;;;;;;;66.10;37.92;;;5.00;99.90;;;;;;5051102;28;20034;-77
2021/01/02 02:23:03;;;;;;;67.22;37.15;;;5.00;99.90;;;;;;5050282;28;20021;-78
2021/01/02 02:25:57;;;;;;;62.28;35.63;;;5.00;99.90;;;;;;5056464;28;20021;-78
2021/01/02 02:28:35;;;;;;;64.95;34.15;;;4.90;99.90;;;;;;5040535;28;20477;-76
2021/01/02 02:31:07;;;;;;;63.65;34.53;;;5.00;99.90;;;;;;5043358;28;20021;-78
2021/01/02 02:33:34;;;;;;;59.95;33.75;;;4.90;99.90;;;;;;5051984;28;20040;-78
2021/01/02 02:36:02;;;;;;;58.97;33.00;;;4.90;99.90;;;;;;5049339;28;20017;-78
2021/01/02 02:38:37;;;;;;;62.33;34.08;;;4.90;99.90;;;;;;5048177;28;20128;-78
2021/01/02 02:41:10;;;;;;;62.40;32.53;;;4.90;99.90;;;;;;5046578;28;20033;-77
2021/01/02 02:43:40;;;;;;;;;;;4.90;99.90;;;;;;5052191;28;20029;-74
2021/01/02 02:46:09;;;;;;;;;;;4.90;99.90;;;;;;5051851;28;19971;-75
2021/01/02 02:48:35;;;;;;;;;;;4.80;99.90;;;;;;5044485;28;19915;-75
2021/01/02 02:51:00;;;;;;;;;;;4.80;99.90;;;;;;5055577;28;19995;-76
2021/01/02 02:53:26;;;;;;;;;;;4.80;99.90;;;;;;5047296;28;20363;-73
2021/01/02 02:55:51;;;;;;;;;;;4.80;99.90;;;;;;5053911;28;20393;-72
2021/01/02 02:58:17;;;;;;;;;;;4.80;99.90;;;;;;5054383;28;19909;-72
2021/01/02 03:00:42;;;;;;;;;;;4.70;99.90;;;;;;5066130;28;19904;-72
2021/01/02 03:03:09;;;;;;;;;;;4.70;99.90;;;;;;5054696;28;19966;-72
2021/01/02 03:05:38;;;;;;;;;;;4.70;99.90;;;;;;5056911;28;19920;-72
2021/01/02 03:08:05;;;;;;;;;;;4.70;99.90;;;;;;5050781;28;19909;-74
2021/01/02 03:10:30;;;;;;;;;;;4.70;99.90;;;;;;5053540;28;19916;-76
2021/01/02 03:12:56;;;;;;;;;;;4.70;99.90;;;;;;5060081;28;19927;-75
2021/01/02 03:15:26;;;;;;;;;;;4.80;99.90;;;;;;5051983;28;20373;-75
2021/01/02 03:17:52;;;;;;;;;;;4.70;99.90;;;;;;5049980;28;19947;-74
2021/01/02 03:20:17;;;;;;;;;;;4.80;99.90;;;;;;5055051;28;19912;-74
2021/01/02 03:22:47;;;;;;;;;;;4.70;99.90;;;;;;5049930;28;20396;-72
2021/01/02 03:25:13;;;;;;;;;;;4.70;99.90;;;;;;5051516;28;19909;-72
2021/01/02 03:27:39;;;;;;;;;;;4.60;99.90;;;;;;5054182;28;19999;-74
2021/01/02 03:30:06;;;;;;;;;;;4.60;99.90;;;;;;5059445;28;19992;-72
2021/01/02 03:32:33;;;;;;;;;;;4.70;99.90;;;;;;5065246;28;19927;-75
2021/01/02 03:34:58;;;;;;;;;;;4.70;99.90;;;;;;5046688;28;19913;-74
2021/01/02 03:37:24;;;;;;;;;;;4.70;99.90;;;;;;5053845;28;19943;-75
2021/01/02 03:39:49;;;;;;;;;;;4.70;99.90;;;;;;5052799;28;20383;-74
2021/01/02 03:42:15;;;;;;;;;;;4.70;99.90;;;;;;5050684;28;19916;-74
2021/01/02 03:44:40;;;;;;;;;;;4.70;99.90;;;;;;5070806;28;19986;-74
2021/01/02 03:47:07;;;;;;;;;;;4.80;99.90;;;;;;5049517;28;20369;-74
2021/01/02 03:49:33;;;;;;;;;;;4.70;99.90;;;;;;5053255;28;20487;-74
2021/01/02 03:52:05;;;;;;;;;;;4.80;99.90;;;;;;5049611;28;19944;-74
2021/01/02 03:54:30;;;;;;;;;;;4.80;99.90;;;;;;5057640;28;19940;-73
2021/01/02 03:56:56;;;;;;;;;;;4.80;99.90;;;;;;5054947;28;19955;-74
2021/01/02 03:59:22;;;;;;;;;;;4.80;99.90;;;;;;5050567;28;19962;-74
2021/01/02 04:01:52;;;;;;;;;;;4.70;99.90;;;;;;5051762;28;19959;-73
2021/01/02 04:04:17;;;;;;;;;;;4.70;99.90;;;;;;5044931;28;19913;-73
2021/01/02 04:06:43;;;;;;;;;;;4.70;99.90;;;;;;5050376;28;19908;-74
2021/01/02 04:09:08;;;;;;;;;;;4.70;99.90;;;;;;5049074;28;20288;-74
2021/01/02 04:11:38;;;;;;;;;;;4.60;99.90;;;;;;5047507;28;20388;-72
2021/01/02 04:14:04;;;;;;;;;;;4.60;99.90;;;;;;5048389;28;19944;-73
2021/01/02 04:16:31;;;;;;;;;;;4.70;99.90;;;;;;5053254;28;19960;-73
2021/01/02 04:18:58;;;;;;;;;;;4.60;99.90;;;;;;5051271;28;20566;-74
2021/01/02 04:21:23;;;;;;;;;;;4.60;99.90;;;;;;5047768;28;19924;-72
2021/01/02 04:23:49;;;;;;;;;;;4.60;99.90;;;;;;5047189;28;19912;-74
2021/01/02 04:26:21;;;;;;;;;;;4.60;99.90;;;;;;5049622;28;20280;-74
2021/01/02 04:28:50;;;;;;;;;;;4.60;99.90;;;;;;5048848;28;19973;-74
2021/01/02 04:31:18;;;;;;;;;;;4.70;99.90;;;;;;5045700;28;20265;-74
2021/01/02 04:33:45;;;;;;;;;;;4.70;99.90;;;;;;5050046;28;20387;-73
2021/01/02 04:36:15;;;;;;;;;;;4.70;99.90;;;;;;5045091;28;19913;-75
2021/01/02 04:38:41;;;;;;;;;;;4.70;99.90;;;;;;5048610;28;20030;-74
2021/01/02 04:41:07;;;;;;;;;;;4.70;99.90;;;;;;5046675;28;20011;-72
2021/01/02 04:43:33;;;;;;;;;;;4.80;99.90;;;;;;5043179;28;20781;-74
2021/01/02 04:46:01;;;;;;;;;;;4.70;99.90;;;;;;5064202;28;19932;-74
2021/01/02 04:48:26;;;;;;;;;;;4.70;99.90;;;;;;5059616;28;19983;-74
2021/01/02 04:50:52;;;;;;;;;;;4.70;99.90;;;;;;5059815;28;20399;-74
2021/01/02 04:53:18;;;;;;;;;;;4.70;99.90;;;;;;5052311;28;19916;-74
2021/01/02 04:55:44;;;;;;;;;;;4.70;99.90;;;;;;5053579;28;19991;-73
2021/01/02 04:58:12;;;;;;;;;;;4.70;99.90;;;;;;5055738;28;19954;-74
2021/01/02 05:00:38;;;;;;;;;;;4.70;99.90;;;;;;5048895;28;19917;-73
2021/01/02 05:03:04;;;;;;;;;;;4.60;99.90;;;;;;5053904;28;19917;-75
2021/01/02 05:05:29;;;;;;;;;;;4.70;99.90;;;;;;5042806;28;20398;-73
2021/01/02 05:07:55;;;;;;;;;;;4.70;99.90;;;;;;5054632;28;19909;-73
2021/01/02 05:10:20;;;;;;;;;;;4.60;99.90;;;;;;5047627;28;20266;-73
2021/01/02 05:12:46;;;;;;;;;;;4.60;99.90;;;;;;5052342;28;20002;-74
2021/01/02 05:15:13;;;;;;;;;;;4.60;99.90;;;;;;5049926;28;19959;-74
2021/01/02 05:17:39;;;;;;;;;;;4.60;99.90;;;;;;5058397;28;19909;-75
2021/01/02 05:20:05;;;;;;;;;;;4.60;99.90;;;;;;5050501;28;19909;-74
2021/01/02 05:22:31;;;;;;;;;;;4.70;99.90;;;;;;5051189;28;19961;-74
2021/01/02 05:25:06;;;;;;;;;;;4.70;99.90;;;;;;5043422;28;19913;-73
2021/01/02 05:27:32;;;;;;;;;;;4.60;99.90;;;;;;5057572;28;19909;-74
2021/01/02 05:30:10;;;;;;;;;;;4.70;99.90;;;;;;5047660;28;19913;-73
2021/01/02 05:32:52;;;;;;;;;;;4.60;99.90;;;;;;5049973;28;20433;-73
2021/01/02 05:35:18;;;;;;;;;;;4.60;99.90;;;;;;5051344;28;19955;-74
2021/01/02 05:37:44;;;;;;;;;;;4.60;99.90;;;;;;5052205;28;19932;-73
2021/01/02 05:40:10;;;;;;;;;;;4.70;99.90;;;;;;5046480;28;19909;-73
2021/01/02 05:42:37;;;;;;;;;;;4.70;99.90;;;;;;5053299;28;19925;-74
2021/01/02 05:45:03;;;;;;;;;;;4.70;99.90;;;;;;5045156;28;19909;-73
2021/01/02 05:47:29;;;;;;;;;;;4.70;99.90;;;;;;5052093;28;20357;-73
2021/01/02 05:49:55;;;;;;;;;;;4.70;99.90;;;;;;5044029;28;19913;-73
2021/01/02 05:52:20;;;;;;;;;;;4.80;99.90;;;;;;5054719;28;19966;-73
2021/01/02 05:54:46;;;;;;;;;;;4.80;99.90;;;;;;5047320;28;19909;-73
2021/01/02 05:57:11;;;;;;;;;;;4.70;99.90;;;;;;5047702;28;19967;-73
2021/01/02 05:59:40;;;;;;;;;;;4.60;99.90;;;;;;5051421;28;19908;-73
2021/01/02 06:02:18;;;;;;;;;;;4.50;99.90;;;;;;5047800;28;19983;-73
2021/01/02 06:04:54;;;;;;;;;;;4.60;99.90;;;;;;5043585;28;19909;-73
2021/01/02 06:07:20;;;;;;;;;;;4.60;99.90;;;;;;5045841;28;19909;-73
2021/01/02 06:09:46;;;;;;;;;;;4.70;99.90;;;;;;5045001;28;20255;-73
2021/01/02 06:12:16;;;;;;;;;;;4.60;99.90;;;;;;5044516;28;19925;-74
2021/01/02 06:14:42;;;;;;;;;;;4.60;99.90;;;;;;5074217;28;20427;-74
2021/01/02 06:17:10;;;;;;;;;;;4.60;99.90;;;;;;5045862;28;19916;-73
2021/01/02 06:19:35;;;;;;;;;;;4.70;99.90;;;;;;5046025;28;19963;-73
2021/01/02 06:22:04;;;;;;;;;;;4.70;99.90;;;;;;5047236;28;19913;-73
2021/01/02 06:24:30;;;;;;;;;;;4.70;99.90;;;;;;5057435;28;19916;-73
2021/01/02 06:26:57;;;;;;;;;;;4.70;99.90;;;;;;5058709;28;19973;-73
2021/01/02 06:29:22;;;;;;;;;;;4.70;99.90;;;;;;5054460;28;20015;-75
2021/01/02 06:31:48;;;;;;;;;;;4.60;99.90;;;;;;5049692;28;20787;-74
2021/01/02 06:34:14;;;;;;;;;;;4.60;99.90;;;;;;5051267;28;19909;-73
2021/01/02 06:36:40;;;;;;;;;;;4.50;99.90;;;;;;5050145;28;19909;-74
2021/01/02 06:39:20;;;;;;;;;;;4.60;99.90;;;;;;5053008;28;20004;-74
2021/01/02 06:41:46;;;;;;;;;;;4.60;99.90;;;;;;5052953;28;19917;-74
2021/01/02 06:44:31;;;;;;;;;;;4.70;99.90;;;;;;5052180;28;19913;-74
2021/01/02 06:47:16;;;;;;;;;;;4.60;99.90;;;;;;5055162;28;20284;-73
2021/01/02 06:49:42;;;;;;;;;;;4.70;99.90;;;;;;5049421;28;20706;-73
2021/01/02 06:52:09;;;;;;;;;;;4.60;99.90;;;;;;5049535;28;19967;-73
2021/01/02 06:54:34;;;;;;;;;;;4.60;99.90;;;;;;5042859;28;19917;-73
2021/01/02 06:57:04;;;;;;;;;;;4.60;99.90;;;;;;5053444;28;19915;-73
2021/01/02 06:59:33;;;;;;;;;;;4.60;99.90;;;;;;5047577;28;19951;-73
2021/01/02 07:01:58;;;;;;;;;;;4.60;99.90;;;;;;5054370;28;19913;-73
2021/01/02 07:04:33;;;;;;;;;;;4.50;99.90;;;;;;5053823;28;19982;-73
2021/01/02 07:06:59;;;;;;;;;;;4.60;99.90;;;;;;5059754;28;19915;-76
2021/01/02 07:09:25;;;;;;;;;;;4.60;99.90;;;;;;5054697;28;19912;-73
2021/01/02 07:11:52;;;;;;;;;;;4.70;99.90;;;;;;5061199;28;19928;-73
2021/01/02 07:14:21;;;;;;;;;;;4.60;99.90;;;;;;5051453;28;19982;-74
2021/01/02 07:16:50;;;;;;;;;;;4.70;99.90;;;;;;5051547;28;19967;-74
2021/01/02 07:22:04;;;;;;;;;;;4.60;99.90;;;;;;5052781;28;19974;-75
2021/01/02 07:24:31;;;;;;;;;;;4.60;99.90;;;;;;5063059;28;19923;-74
2021/01/02 07:26:57;;;;;;;;;;;4.60;99.90;;;;;;5049585;28;20388;-73
2021/01/02 07:29:23;;;;;;;;;;;4.70;99.90;;;;;;5046980;28;19917;-74
2021/01/02 07:31:49;;;;;;;;;;;4.70;99.90;;;;;;5062684;28;19924;-73
2021/01/02 07:34:18;;;;;;;;;;;4.80;99.90;;;;;;5045182;28;19905;-73
2021/01/02 07:36:45;;;;;;;;;;;4.70;99.90;;;;;;5060348;28;20394;-74
2021/01/02 07:39:11;;;;;;;;;;;4.70;99.90;;;;;;5045350;28;20369;-74
2021/01/02 07:41:39;;;;;;;;;;;4.70;99.90;;;;;;5070536;28;19923;-74
2021/01/02 07:44:10;;;;;;;;;;;4.70;99.90;;;;;;5051926;28;19921;-74
2021/01/02 07:46:43;;;;;;;;;;;4.80;99.90;;;;;;5053562;28;19914;-74
2021/01/02 07:49:09;;;;;;;;;;;4.80;99.90;;;;;;5051082;28;19904;-73
2021/01/02 07:51:35;;;;;;;;;;;4.80;99.90;;;;;;5050337;28;19948;-74
2021/01/02 07:54:01;;;;;;;;;;;4.80;99.90;;;;;;5052536;28;19955;-73
2021/01/02 07:56:34;;;;;;;;;;;4.80;99.90;;;;;;5046195;28;19917;-75
2021/01/02 07:59:20;;;;;;;;;;;4.70;99.90;;;;;;5050165;28;19999;-74
2021/01/02 08:01:50;;;;;;;;;;;4.70;99.90;;;;;;5050622;28;19912;-73
2021/01/02 08:04:16;;;;;;;;;;;4.80;99.90;;;;;;5056996;28;19909;-76
2021/01/02 08:06:54;;;;;;;;;;;4.80;99.90;;;;;;5051545;28;19912;-73
2021/01/02 08:09:19;;;;;;;;;;;4.80;99.90;;;;;;5051591;28;19948;-74
2021/01/02 08:11:52;;;;;;;;;;;4.80;99.90;;;;;;5056286;28;19975;-75
2021/01/02 08:14:19;;;;;;;;;;;4.90;99.90;;;;;;5050590;28;19913;-74
2021/01/02 08:16:54;;;;;;;;;;;4.80;99.90;;;;;;5050978;28;19917;-74
2021/01/02 08:19:19;;;;;;;;;;;4.80;99.90;;;;;;5048375;28;19909;-74
2021/01/02 08:21:45;;;;;;;;;;;4.80;99.90;;;;;;5052825;28;19931;-74
2021/01/02 08:24:13;;;;;;;;;;;4.80;99.90;;;;;;5048597;28;20284;-74
2021/01/02 08:26:42;;;;;;;;;;;4.80;99.90;;;;;;5070252;28;19909;-72
2021/01/02 08:29:07;;;;;;;;;;;4.80;99.90;;;;;;5042684;28;19909;-73
2021/01/02 08:31:34;;;;;;;;;;;4.80;99.90;;;;;;5054520;28;20335;-73
2021/01/02 08:34:00;;;;;;;;;;;4.70;99.90;;;;;;5052962;28;19916;-73
2021/01/02 08:36:26;;;;;;;;;;;4.70;99.90;;;;;;5052471;28;19912;-73
2021/01/02 08:39:00;;;;;;;;;;;4.70;99.90;;;;;;5050849;28;19908;-73
2021/01/02 08:41:27;;;;;;;;;;;4.70;99.90;;;;;;5043651;28;19920;-73
2021/01/02 08:43:56;;;;;;;;;;;4.70;99.90;;;;;;5049177;28;19916;-74
2021/01/02 08:46:23;;;;;;;;;;;4.80;99.90;;;;;;5045383;28;20004;-73
2021/01/02 08:48:49;;;;;;;;;;;4.80;99.90;;;;;;5053894;28;19915;-73
2021/01/02 08:51:27;;;;;;;;;;;4.90;99.90;;;;;;5050070;28;19982;-74
2021/01/02 08:53:53;;;;;;;;;;;4.80;99.90;;;;;;5055603;28;20368;-73
2021/01/02 08:56:25;;;;;;;;;;;4.80;99.90;;;;;;5052803;28;19912;-73
2021/01/02 08:58:52;;;;;;;;;;;4.80;99.90;;;;;;5053711;28;19923;-73
2021/01/02 09:01:18;;;;;;;;;;;4.80;99.90;;;;;;5051673;28;20335;-73
2021/01/02 09:03:44;;;;;;;;;;;4.90;99.90;;;;;;5047196;28;19936;-75
2021/01/02 09:06:36;;;;;;;;;;;4.90;99.90;;;;;;5044101;28;19956;-74
2021/01/02 09:09:03;;;;;;;;;;;4.90;99.90;;;;;;5043177;28;20285;-73
2021/01/02 09:11:44;;;;;;;;;;;5.00;99.90;;;;;;5048533;28;20285;-74
2021/01/02 09:14:10;;;;;;;;;;;5.00;99.90;;;;;;5045934;28;20281;-73
2021/01/02 09:16:36;;;;;;;;;;;5.00;99.90;;;;;;5057695;28;19909;-73
2021/01/02 09:19:01;;;;;;;;;;;5.00;99.90;;;;;;5045770;28;20004;-73
2021/01/02 09:21:27;;;;;;;;;;;5.00;99.90;;;;;;5048726;28;19912;-73
2021/01/02 09:23:53;;;;;;;;;;;4.90;99.90;;;;;;5053135;28;19962;-73
2021/01/02 09:26:32;;;;;;;;;;;5.00;99.90;;;;;;5050712;28;19915;-79
2021/01/02 09:28:59;;;;;;;;;;;5.10;99.90;;;;;;5050987;28;19913;-74
2021/01/02 09:31:25;;;;;;;;;;;5.10;99.90;;;;;;5054557;28;19912;-74
2021/01/02 09:33:51;;;;;;;;;;;5.20;99.90;;;;;;5042388;28;20373;-74
2021/01/02 09:36:19;;;;;;;;;;;5.10;99.90;;;;;;5051192;28;19962;-77
2021/01/02 09:38:44;;;;;;;;;;;5.10;99.90;;;;;;5051407;28;20357;-74
2021/01/02 09:41:11;;;;;;;;;;;5.10;99.90;;;;;;5056528;28;19928;-78
2021/01/02 09:43:36;;;;;;;;;;;5.00;99.90;;;;;;5048080;28;19912;-75
2021/01/02 09:46:03;;;;;;;;;;;5.10;99.90;;;;;;5051344;28;20296;-75
2021/01/02 09:48:29;;;;;;;;;;;5.10;99.90;;;;;;5048974;28;19908;-75
2021/01/02 09:50:55;;;;;;;;;;;5.10;99.90;;;;;;5046676;28;19971;-79
2021/01/02 09:53:21;;;;;;;;;;;5.20;99.90;;;;;;5048483;28;19916;-74
2021/01/02 09:55:47;;;;;;;;;;;5.20;99.90;;;;;;5051077;28;19909;-78
2021/01/02 09:58:14;;;;;;;;;;;5.30;99.90;;;;;;5045650;28;20345;-74
2021/01/02 10:00:40;;;;;;;;;;;5.30;99.90;;;;;;5072054;28;19908;-74
2021/01/02 10:03:09;;;;;;;;;;;5.30;99.90;;;;;;5050818;28;20329;-74
2021/01/02 10:05:35;;;;;;;;;;;5.30;99.90;;;;;;5047404;28;20501;-74
2021/01/02 10:08:02;;;;;;;;;;;5.30;99.90;;;;;;5048509;28;19908;-74
2021/01/02 10:10:27;;;;;;;;;;;5.30;99.90;;;;;;5052054;28;19912;-73
2021/01/02 10:12:53;;;;;;;;;;;5.30;99.90;;;;;;5043305;28;19982;-74
2021/01/02 10:15:19;;;;;;;;;;;5.30;99.90;;;;;;5054307;28;20281;-73
2021/01/02 10:17:44;;;;;;;;;;;5.30;99.90;;;;;;5051831;28;19909;-75
2021/01/02 10:20:11;;;;;;;;;;;5.30;99.90;;;;;;5051365;28;19909;-73
2021/01/02 10:22:36;;;;;;;;;;;5.30;99.90;;;;;;5048933;28;20357;-76
2021/01/02 10:25:02;;;;;;;;;;;5.40;99.90;;;;;;5053625;28;19920;-74
2021/01/02 10:27:28;;;;;;;;;;;5.30;99.90;;;;;;5053218;28;20350;-73
2021/01/02 10:29:55;;;;;;;;;;;5.30;99.90;;;;;;5047885;28;19909;-74
2021/01/02 10:32:22;;;;;;;;;;;5.30;99.90;;;;;;5052291;28;19923;-74
2021/01/02 10:34:50;;;;;;;;;;;5.20;99.90;;;;;;5055636;28;19966;-74
2021/01/02 10:37:17;;;;;;;;;;;5.30;99.90;;;;;;5056884;28;19912;-74
2021/01/02 10:39:43;;;;;;;;;;;5.40;99.90;;;;;;5055778;28;19912;-74
2021/01/02 10:42:09;;;;;;;;;;;5.50;99.90;;;;;;5056007;28;20324;-74
2021/01/02 10:44:35;;;;;;;;;;;5.50;99.90;;;;;;5052466;28;19965;-74
2021/01/02 10:47:00;;;;;;;;;;;5.50;99.90;;;;;;5054321;28;19912;-74
2021/01/02 10:49:28;;;;;;;;;;;5.50;99.90;;;;;;5048728;28;19905;-74
2021/01/02 10:51:53;;;;;;;;;;;5.50;99.90;;;;;;5055896;28;20365;-74
2021/01/02 10:54:19;;;;;;;;;;;5.60;99.90;;;;;;5054914;28;19909;-74
2021/01/02 10:56:52;;;;;;;;;;;5.60;99.90;;;;;;5052532;28;19916;-74
2021/01/02 10:59:22;;;;;;;;;;;5.60;99.90;;;;;;5066037;28;20373;-74
2021/01/02 11:01:49;;;;;;;;;;;5.60;99.90;;;;;;5044260;28;19909;-74
2021/01/02 11:04:15;;;;;;;;;;;5.70;99.90;;;;;;5046694;28;19966;-74
2021/01/02 11:06:42;;;;;;;;;;;5.70;99.90;;;;;;5038956;28;20393;-74
2021/01/02 11:09:09;;;;;;;;;;;5.60;99.90;;;;;;5044907;28;19954;-74
2021/01/02 11:11:35;;;;;;;;;;;5.70;99.90;;;;;;5039867;28;19966;-73
2021/01/02 11:14:00;;;;;;;;;;;5.80;99.90;;;;;;5046026;28;20411;-74
2021/01/02 11:16:33;;;;;;;;;;;5.80;99.90;;;;;;5048804;28;19905;-74
2021/01/02 11:18:58;;;;;;;;;;;5.70;99.90;;;;;;5045512;28;20035;-75
2021/01/02 11:21:24;;;;;;;;;;;5.70;99.90;;;;;;5042253;28;20395;-74
2021/01/02 11:23:50;;;;;;;;;;;5.80;99.90;;;;;;5040556;28;19905;-74
2021/01/02 11:26:15;;;;;;;;;;;5.90;99.90;;;;;;5048295;28;19912;-74
2021/01/02 11:28:41;;;;;;;;;;;5.80;99.90;;;;;;5042086;28;19905;-74
2021/01/02 11:31:07;;;;;;;;;;;5.80;99.90;;;;;;5042775;28;19913;-74
2021/01/02 11:33:33;;;;;;;;;;;5.90;99.90;;;;;;5049300;28;20383;-74
2021/01/02 11:35:58;;;;;;;;;;;5.70;99.90;;;;;;5052571;28;19917;-74
2021/01/02 11:38:24;;;;;;;;;;;5.80;99.90;;;;;;5065128;28;19905;-76
2021/01/02 11:40:50;;;;;;;;;;;5.80;99.90;;;;;;5057502;28;19935;-74
2021/01/02 11:43:15;;;;;;;;;;;5.80;99.90;;;;;;5048230;28;19967;-74
2021/01/02 11:45:41;;;;;;;;;;;5.80;99.90;;;;;;5053633;28;19913;-74
2021/01/02 11:48:07;;;;;;;;;;;5.90;99.90;;;;;;5065141;28;20368;-77
2021/01/02 11:50:32;;;;;;;;;;;5.90;99.90;;;;;;5046301;28;20573;-74
2021/01/02 11:52:58;;;;;;;;;;;5.90;99.90;;;;;;5051922;28;19923;-75
2021/01/02 11:55:23;;;;;;;;;;;5.90;99.90;;;;;;5055674;28;19939;-76
2021/01/02 11:57:49;;;;;;;;;;;5.90;99.90;;;;;;5044760;28;20523;-74
2021/01/02 12:00:15;;;;;;;;;;;5.90;99.90;;;;;;5052199;28;19905;-75
2021/01/02 12:02:41;;;;;;;;;;;5.80;99.90;;;;;;5059922;28;19962;-79
2021/01/02 12:05:08;;;;;;;;;;;5.80;99.90;;;;;;5048573;28;19917;-75
2021/01/02 12:07:34;;;;;;;;;;;5.80;99.90;;;;;;5052056;28;19935;-74
2021/01/02 12:10:00;;;;;;;;;;;5.90;99.90;;;;;;5048504;28;19935;-75
2021/01/02 12:12:26;;;;;;;;;;;5.90;99.90;;;;;;5056102;28;19916;-73
2021/01/02 12:14:51;;;;;;;;;;;5.80;99.90;;;;;;5051421;28;19920;-73
2021/01/02 12:17:17;;;;;;;;;;;5.90;99.90;;;;;;5052305;28;19912;-74
2021/01/02 12:19:43;;;;;;;;;;;5.90;99.90;;;;;;5054174;28;19954;-74
2021/01/02 12:22:10;;;;;;;;;;;5.90;99.90;;;;;;5051220;28;20474;-73
2021/01/02 12:24:35;;;;;;;;;;;5.90;99.90;;;;;;5051409;28;19917;-73
2021/01/02 12:27:05;;;;;;;;;;;6.00;99.90;;;;;;5058111;28;20379;-74
2021/01/02 12:29:32;;;;;;;;;;;6.00;99.90;;;;;;5052458;28;19909;-74
2021/01/02 12:32:01;;;;;;;;;;;6.00;99.90;;;;;;5048300;28;19913;-74
2021/01/02 12:34:28;;;;;;;;;;;6.00;99.90;;;;;;5057308;28;19909;-74
2021/01/02 12:36:55;;;;;;;;;;;5.90;99.90;;;;;;5052257;28;19999;-73
2021/01/02 12:39:25;;;;;;;;;;;6.00;99.90;;;;;;5057843;28;19959;-74
2021/01/02 12:41:51;;;;;;;;;;;6.00;99.90;;;;;;5049401;28;19913;-74
2021/01/02 12:44:16;;;;;;;;;;;6.00;99.90;;;;;;5052346;28;20011;-74
2021/01/02 12:46:46;;;;;;;;;;;6.00;99.90;;;;;;5056767;28;19909;-73
2021/01/02 12:49:14;;;;;;;;;;;5.80;99.90;;;;;;5059568;28;19920;-74
2021/01/02 12:51:39;;;;;;;;;;;5.80;99.90;;;;;;5050418;28;20381;-74
2021/01/02 12:54:05;;;;;;;;;;;5.80;99.90;;;;;;5052439;28;19967;-74
2021/01/02 12:56:31;;;;;;;;;;;5.80;99.90;;;;;;5051945;28;19908;-73
2021/01/02 12:58:56;;;;;;;;;;;5.80;99.90;;;;;;5048956;28;19951;-74
2021/01/02 13:01:22;;;;;;;;;;;5.90;99.90;;;;;;5044811;28;20359;-74
2021/01/02 13:03:47;;;;;;;;;;;5.90;99.90;;;;;;5050859;28;19920;-73
2021/01/02 13:06:14;;;;;;;;;;;5.90;99.90;;;;;;5049361;28;19909;-74
2021/01/02 13:08:39;;;;;;;;;;;5.90;99.90;;;;;;5047009;28;19913;-73
2021/01/02 13:11:08;;;;;;;;;;;5.90;99.90;;;;;;5050761;28;20372;-74
2021/01/02 13:13:34;;;;;;;;;;;5.90;99.90;;;;;;5052327;28;19932;-73
2021/01/02 13:16:00;;;;;;;;;;;5.90;99.90;;;;;;5053304;28;19908;-73
2021/01/02 13:18:26;;;;;;;;;;;5.90;99.90;;;;;;5050723;28;19905;-74
2021/01/02 13:20:51;;;;;;;;;;;5.80;99.90;;;;;;5054849;28;20361;-73
2021/01/02 13:23:18;;;;;;;;;;;5.80;99.90;;;;;;5050915;28;19908;-73
2021/01/02 13:25:44;;;;;;;;;;;5.80;99.90;;;;;;5051265;28;20012;-73
2021/01/02 13:28:09;;;;;;;;;;;5.80;99.90;;;;;;5054240;28;20378;-73
2021/01/02 13:30:35;;;;;;;;;;;5.80;99.90;;;;;;5051838;28;19908;-74
2021/01/02 13:33:00;;;;;;;;;;;5.80;99.90;;;;;;5054545;28;20397;-73
2021/01/02 13:35:26;;;;;;;;;;;5.70;99.90;;;;;;5049540;28;19920;-74
2021/01/02 13:37:52;;;;;;;;;;;5.80;99.90;;;;;;5046097;28;20345;-73
2021/01/02 13:40:17;;;;;;;;;;;5.80;99.90;;;;;;5050954;28;19916;-73
2021/01/02 13:42:43;;;;;;;;;;;5.90;99.90;;;;;;5053847;28;19913;-74
2021/01/02 13:45:09;;;;;;;;;;;5.90;99.90;;;;;;5053057;28;20007;-73
2021/01/02 13:47:35;;;;;;;;;;;5.90;99.90;;;;;;5052722;28;20384;-74
2021/01/02 13:50:01;;;;;;;;;;;6.00;99.90;;;;;;5057711;28;19913;-74
2021/01/02 13:52:26;;;;;;;;;;;5.90;99.90;;;;;;5050430;28;20357;-73
2021/01/02 13:54:52;;;;;;;;;;;6.00;99.90;;;;;;5053586;28;19908;-74
2021/01/02 13:57:18;;;;;;;;;;;6.00;99.90;;;;;;5051487;28;19912;-73
2021/01/02 13:59:48;;;;;;;;;;;6.00;99.90;;;;;;5051193;28;19955;-74
2021/01/02 14:02:13;;;;;;;;;;;6.00;99.90;;;;;;5058334;28;19916;-74
2021/01/02 14:04:40;;;;;;;;;;;6.00;99.90;;;;;;5059148;28;20006;-73
2021/01/02 14:07:05;;;;;;;;;;;6.00;99.90;;;;;;5052145;28;19963;-74
2021/01/02 14:09:31;;;;;;;;;;;6.00;99.90;;;;;;5049588;28;19908;-74
2021/01/02 14:11:58;;;;;;;;;;;5.90;99.90;;;;;;5051938;28;19924;-73
2021/01/02 14:14:24;;;;;;;;;;;5.90;99.90;;;;;;5059357;28;19913;-73
2021/01/02 14:16:51;;;;;;;;;;;6.00;99.90;;;;;;5056565;28;20250;-74
2021/01/02 14:19:17;;;;;;;;;;;5.90;99.90;;;;;;5055398;28;19912;-73